Tiempo atmosférico en la estación meteorológica de Baza, Granada (801 m.)



Fecha
DESCASC
Temp. máxima en grados centígrados (hora)
DESCASC
Temp. mínima en grados centígrados (hora)
DESCASC
Temp. media en grados centígrados
DESCASC
Racha de viento máxima en m/sg (hora)
DESCASC
Velocidad máxima media en intervalos de 10 minutos(hora)
DESCASC
Precipitaciones diarias en mm
DESCASC
Precipitaciones de 00:00 a 06:00 en mm
DESCASC
Precipitaciones de 06:00 a 12:00 en mm
DESCASC
Precipitaciones de 12:00 a 18:00 en mm
DESCASC
Precipitaciones de 18:00 a 24:00 en mm
DESCASC
17-03-2019 21.1 (15:50) 2.6 (07:50) 11.9 12.5 (13:50) 6.94 (15:30) 0 0 0 0 0
16-03-2019 25.9 (16:30) -0.6 (07:30) 12.6 7.5 (17:50) 4.17 (17:20) 0 0 0 0 0
15-03-2019 26.1 (17:20) -1.9 (07:40) 12.1 7.22 (18:40) 4.44 (18:40) 0 0 0 0 0
14-03-2019 20.4 (17:00) -2.1 (-00:0) 9.1 8.89 (14:30) 5.28 (13:20) 0 0 0 0 0
13-03-2019 18.8 (16:40) 4.7 (00:00) 11.7 10.28 (16:20) 6.11 (14:20) 0 0 0 0 0
12-03-2019 24.3 (15:40) 2.3 (00:00) 13.3 10.56 (15:00) 5.83 (15:50) 0 0 0 0 0
11-03-2019 24.4 (15:40) 2.3 (00:00) 13.3 10 (18:00) 6.39 (18:00) 0 0 0 0 0
10-03-2019 24 (17:00) -0.5 (-00:0) 11.8 7.78 (18:10) 5.28 (17:40) 0 0 0 0 0
09-03-2019 21.6 (16:10) -1.6 (-00:0) 10 8.33 (15:30) 4.17 (21:10) 0 0 0 0 0
08-03-2019 17.6 (17:40) -2.1 (-00:0) 7.8 6.11 (17:50) 3.89 (18:10) 0 0 0 0 0
07-03-2019 13.7 (15:10) 4.9 (00:00) 9.3 10.56 (15:20) 6.39 (03:00) 0 0 0 0 0
06-03-2019 20.1 (14:00) 4.3 (00:00) 12.2 20.28 (15:00) 11.39 (14:50) 0.6 0 0 0 0.6
05-03-2019 18.8 (15:10) 6.6 (00:00) 12.7 10.28 (14:10) 6.11 (13:00) 0 0 0 0 0
04-03-2019 19.5 (15:20) 6.3 (00:00) 12.9 9.72 (14:20) 6.39 (14:20) 0 0 0 0 0
03-03-2019 23.6 (17:40) 0 (00:00) 11.8 5 (15:50) 3.06 (16:00) 0 0 0 0 0
02-03-2019 21.3 (16:30) 3.8 (00:00) 12.5 8.61 (17:20) 5.28 (17:20) 0 0 0 0 0
01-03-2019 20.1 (15:30) 0 (00:00) 10.1 8.61 (22:10) 5.56 (20:30) 0 0 0 0 0
28-02-2019 22.1 (15:40) -2.5 (-00:0) 9.8 6.67 (16:10) 4.72 (16:20) 0 0 0 0 0
27-02-2019 22.7 (17:20) -3.4 (-00:0) 9.7 6.11 (18:50) 3.89 (18:50) 0 0 0 0 0
26-02-2019 20.3 (15:30) -3.7 (-00:0) 8.3 10 (16:00) 5.28 (15:10) 0 0 0 0 0
25-02-2019 20.1 (15:40) -2.1 (-00:0) 9 9.17 (14:50) 5.28 (16:00) 0 0 0 0 0
24-02-2019 18.9 (13:40) -2.3 (-00:0) 8.3 10.28 (18:30) 6.11 (18:10) 0 0 0 0 0
23-02-2019 20.6 (16:40) -3.8 (-00:0) 8.4 9.17 (19:00) 6.11 (17:10) 0 0 0 0 0
22-02-2019 21.6 (17:00) -3.5 (-00:0) 9.1 4.44 (20:40) 2.78 (20:40) 0 0 0 0 0
21-02-2019 17.2 (15:30) -3.3 (-00:0) 7 8.06 (19:30) 5 (17:50) 0 0 0 0 0
20-02-2019 17.8 (16:00) -1.1 (-00:0) 8.3 7.78 (21:50) 4.72 (21:50) 0 0 0 0 0

Gráficas

Temp. máximas Temp. mínimas Temp. medias Precipitaciones Rachas de viento máximas Velocidades máximas media en intervalos de 10 minutos

Datos horarios

Fecha y hora oficial Temperatura (ºC) Velocidad del viento (km/h) Dirección del viento Racha (km/h) Dirección de racha Precipitación (mm) Presión (hPa) Tendencia (hPa) Humedad (%)
2019-03-21 23:00:00 4.9 4 Este 15 Sur 0 934.9 1.9 69
2019-03-21 22:00:00 4.7 9 Sudeste 14 Sur 0 934.4 1.6 68
2019-03-21 21:00:00 5.5 8 Sudeste 10 Sudeste 0 933.8 1.2 54
2019-03-21 20:00:00 8.7 6 Sudeste 14 Este 0 933 0.4 41
2019-03-21 19:00:00 11.9 6 Este 22 Este 0 932.8 0 31
2019-03-21 18:00:00 13.6 9 Este 26 Sudeste 0 932.6 -0.4 28
2019-03-21 17:00:00 14.3 14 Este 28 Nordeste 0 932.6 -0.7 28
2019-03-21 16:00:00 13 13 Este 30 Este 0 932.8 -1.1 31
2019-03-21 15:00:00 13.9 13 Este 31 Este 0 933 -1.5 28
2019-03-21 14:00:00 14.4 16 Este 28 Sudeste 0 933.3 -1.5 26
2019-03-21 13:00:00 12.9 11 Nordeste 34 Nordeste 0 933.9 -1.2 27
2019-03-21 12:00:00 11.2 13 Nordeste 32 Este 0 934.5 -0.5 30
2019-03-21 11:00:00 8.7 8 Nordeste 17 Este 0 934.8 0.2 40
2019-03-21 10:00:00 4.3 4 Norte 8 Norte 0 935.1 1.1 70
2019-03-21 09:00:00 0 3 Sudeste 6 Este 0 935 1 92
2019-03-21 08:00:00 -2.4 3 Nordeste 8 Nordeste 0 934.6 0.8 94
2019-03-21 07:00:00 -2.7 5 Sudeste 12 Sudeste 0 934 0 94
2019-03-21 06:00:00 -1.7 4 Sudeste 10 Sudeste 0 934 -0.6 94
2019-03-21 05:00:00 -1 8 Sudeste 12 Sudeste 0 933.8 -1 94
2019-03-21 04:00:00 -0.1 8 Sudeste 10 Sudeste 0 934 -1.1 92
2019-03-21 03:00:00 1.6 7 Sudeste 11 Sudeste 0 934.6 -0.8 87
2019-03-21 02:00:00 4 4 Nordeste 8 Norte 0 934.8 -0.6 85
2019-03-21 01:00:00 4.9 5 Sudeste 14 Sudeste 0 935.1 -0.3 83
2019-03-21 00:00:00 4.4 8 Sudeste 14 Sudeste 0 935.4 0.7 87
2019-03-20 23:00:00 4.8 10 Sur 17 Sudeste 0 935.4 1.5 81
2019-03-20 22:00:00 6 13 Sudeste 24 Sudeste 0 935.4 2.1 74
2019-03-20 21:00:00 6.9 13 Sudeste 27 Sudeste 0 934.7 2.1 70
2019-03-20 20:00:00 7.4 14 Sudeste 33 Sudeste 0 933.9 1.6 68
2019-03-20 19:00:00 9.1 17 Sudeste 28 Sudeste 0 933.3 0.8 57
2019-03-20 18:00:00 10.4 19 Sudeste 33 Sudeste 0 932.6 -0.5 51
2019-03-20 17:00:00 11.1 13 Sudeste 29 Sudeste 0 932.3 -1.2 45
2019-03-20 16:00:00 12.1 13 Sudeste 28 Sudeste 0 932.5 -1.6 40
2019-03-20 15:00:00 11.9 10 Este 23 Este 0 933.1 -1.2 41
2019-03-20 14:00:00 10.9 6 Nordeste 19 Nordeste 0 933.5 -1.2 41
2019-03-20 13:00:00 11 6 Sudeste 17 Este 0 934.1 -0.2 43
2019-03-20 12:00:00 11.7 5 Sudeste 20 Este 0 934.3 0.3 45
2019-03-20 11:00:00 9.3 10 Este 22 Este 0 934.7 1.3 56
2019-03-20 10:00:00 8 14 Sudeste 27 Sudeste 0 934.3 1.4 64
2019-03-20 09:00:00 4.6 4 Oeste 8 Oeste 0 934 1.3 86
2019-03-20 08:00:00 2.4 3 Sudeste 8 Sur 0 933.4 0.9 93
2019-03-20 07:00:00 2.3 4 Sudoeste 7 Noroeste 0 932.9 0.2 92
2019-03-20 06:00:00 2.3 4 Nordeste 8 Nordeste 0 932.7 -0.8 91
2019-03-20 05:00:00 3.5 0 Calma 8 Sudeste 0 932.5 -1.3 90
2019-03-20 04:00:00 4 6 Sudeste 12 Sudeste 0 932.7 -1 90
2019-03-20 03:00:00 4.2 6 Sudeste 11 Sudeste 0 933.5 -0.1 92
2019-03-20 02:00:00 4 7 Sudeste 10 Sudeste 0 933.8 0.4 93
2019-03-20 01:00:00 4.5 7 Sudeste 13 Sudeste 0 933.7 1 91
2019-03-20 00:00:00 5.3 10 Sudeste 15 Sudeste 0 933.6 1.6 90
2019-03-19 23:00:00 6.3 10 Sudeste 24 Sudeste 0 933.4 2.3 84
2019-03-19 22:00:00 7 13 Sur 26 Sur 0 932.7 2.3 82
2019-03-19 21:00:00 7.8 12 Sudeste 33 Sudeste 0 932 2.2 76
2019-03-19 20:00:00 9.9 13 Sudeste 25 Sudeste 0 931.1 1.6 61
2019-03-19 19:00:00 12.2 5 Nordeste 20 Nordeste 0 930.4 1.1 31
2019-03-19 18:00:00 12.8 8 Nordeste 27 Nordeste 0 929.8 0.3 30
2019-03-19 17:00:00 14.2 5 Nordeste 19 Norte 0 929.5 -0.6 31
2019-03-19 16:00:00 14.6 8 Noroeste 20 Norte 0 929.3 -1.3 31
2019-03-19 15:00:00 14.3 8 Norte 23 Norte 0 929.5 -1.1 33
2019-03-19 14:00:00 14.4 9 Noroeste 28 Oeste 0 930.1 -1.1 31
2019-03-19 13:00:00 13.2 6 Nordeste 25 Noroeste 0 930.6 -0.3 44
2019-03-19 12:00:00 11.4 13 Oeste 20 Oeste 0 930.6 -0.6 48
2019-03-19 11:00:00 9.6 9 Noroeste 34 Oeste 0 931.2 0.2 67
2019-03-19 10:00:00 8.2 8 Noroeste 14 Oeste 0 930.9 0.1 77
2019-03-19 09:00:00 5.6 4 Nordeste 7 Norte 0 931.2 0.4 96
2019-03-19 08:00:00 3.5 4 Sudeste 10 Sudoeste 0 931 0.6 94
2019-03-19 07:00:00 3.8 5 Sudoeste 8 Sudoeste 0 930.8 0 94
2019-03-19 06:00:00 4.2 3 Noroeste 8 Este 0 930.8 -0.6 95
2019-03-19 05:00:00 3.5 4 Este 8 Sudeste 0 930.4 -1.3 93
2019-03-19 04:00:00 4.3 3 Sur 9 Sur 0 930.8 -1.2 92
2019-03-19 03:00:00 5.6 6 Sur 8 Sur 0 931.4 -0.9 91
2019-03-19 02:00:00 6.6 6 Sur 14 Sudeste 0 931.7 -0.7 90
2019-03-19 01:00:00 7.7 9 Sudeste 16 Sudeste 0 932 0.1 88
2019-03-19 00:00:00 8.1 10 Sudeste 18 Sur 0 932.3 1.1 86
2019-03-18 23:00:00 8 7 Sudeste 18 Sudeste 0 932.4 1.6 85
2019-03-18 22:00:00 8.2 10 Sudeste 19 Sudeste 0 931.9 1.8 84
2019-03-18 21:00:00 8.9 13 Sudeste 27 Sudeste 0 931.2 2.2 81
2019-03-18 20:00:00 10.3 13 Sur 26 Sur 0 930.8 2 74
2019-03-18 19:00:00 13.5 15 Sudeste 26 Sudeste 0 930.1 1.1 57
2019-03-18 18:00:00 17 17 Sudeste 30 Este 0 929 -0.5 43
2019-03-18 17:00:00 17.7 16 Sudeste 31 Sudeste 0 928.8 -1.1 42
2019-03-18 16:00:00 18.2 13 Sudeste 25 Sudeste 0 929 -1.5 40
2019-03-18 15:00:00 16.9 14 Sudeste 25 Este 0 929.5 -1.5 46
2019-03-18 14:00:00 16.6 8 Norte 17 Este 0 929.9 -1.1 37
2019-03-18 13:00:00 15.8 7 Nordeste 41 Este 0 930.5 -0.5 45
2019-03-18 12:00:00 15.3 10 Sudeste 21 Este 0 931 0.7 46
2019-03-18 11:00:00 13.3 13 Sudeste 21 Sudeste 0 931 1.5 53
2019-03-18 10:00:00 9.6 6 Norte 14 Norte 0 931 2.2 58
2019-03-18 09:00:00 4.9 2 Sudeste 9 Nordeste 0 930.3 2.1 65
2019-03-18 08:00:00 3.1 4 Norte 9 Oeste 0 929.5 1.9 67
2019-03-18 07:00:00 2.5 4 Sur 14 Sudeste 0 928.8 1.2 72
2019-03-18 06:00:00 3.4 12 Oeste 15 Oeste 0 928.2 0.3 66
2019-03-18 05:00:00 3.4 4 Sudeste 9 Noroeste 0 927.6 -0.5 64
2019-03-18 04:00:00 4.6 5 Sudoeste 12 Sudeste 0 927.6 -0.7 63
2019-03-18 03:00:00 5.2 10 Sudeste 14 Sur 0 927.9 -0.6 60
2019-03-18 02:00:00 6.1 7 Sur 13 Sur 0 928.1 -0.3 58
2019-03-18 01:00:00 6.4 6 Sudeste 10 Sudeste 0 928.3 0.2 51
2019-03-18 00:00:00 8.2 7 Sudeste 13 Este 0 928.5 0.7 42
2019-03-17 23:00:00 11.3 4 Sur 17 Oeste 0 928.4 1 33
2019-03-17 22:00:00 12.7 9 Oeste 15 Sudoeste 0 928.1 1 30
2019-03-17 21:00:00 13.5 8 Sudoeste 14 Oeste 0 927.8 0.8 25
2019-03-17 20:00:00 15.7 8 Oeste 18 Noroeste 0 927.4 0.5 21
2019-03-17 19:00:00 18.2 10 Noroeste 27 Noroeste 0 927.1 -0.2 17
2019-03-17 18:00:00 20.3 13 Noroeste 31 Noroeste 0 927 -0.7 14
2019-03-17 17:00:00 20.7 17 Noroeste 35 Noroeste 0 926.9 -1.6 17
2019-03-17 16:00:00 20.9 19 Noroeste 39 Oeste 0 927.3 -1.7 15
2019-03-17 15:00:00 20 23 Noroeste 39 Oeste 0 927.7 -1.8 20
2019-03-17 14:00:00 19.8 22 Noroeste 45 Noroeste 0 928.5 -1.1 27
2019-03-17 13:00:00 19 21 Noroeste 42 Oeste 0 929 -0.6 29
2019-03-17 12:00:00 17.4 22 Noroeste 34 Noroeste 0 929.5 0.1 31
2019-03-17 11:00:00 15.4 19 Noroeste 30 Noroeste 0 929.6 0.6 37
2019-03-17 10:00:00 9.5 5 Norte 12 Norte 0 929.6 1 50
2019-03-17 09:00:00 5.4 2 Sudeste 7 Sudeste 0 929.4 0.7 64
2019-03-17 08:00:00 2.6 3 Norte 10 Norte 0 929 0.6 65
2019-03-17 07:00:00 2.8 8 Sudeste 12 Sudeste 0 928.6 0.1 70
2019-03-17 06:00:00 3.1 9 Sur 12 Sudeste 0 928.7 -0.1 64
2019-03-17 05:00:00 3.4 6 Sur 9 Sudeste 0 928.4 -0.9 65
2019-03-17 04:00:00 4.3 6 Sur 10 Sur 0 928.5 -0.9 60
2019-03-17 03:00:00 4.7 6 Sudeste 10 Sudeste 0 928.8 -0.9 60
2019-03-17 02:00:00 6.5 3 Oeste 14 Sur 0 929.3 -0.5 53
2019-03-17 01:00:00 6.9 8 Sudeste 10 Este 0 929.4 -0.3 52
2019-03-17 00:00:00 9.4 9 Oeste 14 Oeste 0 929.7 0.3 43
2019-03-16 23:00:00 9.3 8 Sudeste 13 Sudeste 0 929.8 0.8 45
2019-03-16 22:00:00 11.7 6 Sur 15 Sudeste 0 929.7 1.1 37
2019-03-16 21:00:00 13.9 10 Sudeste 19 Sudeste 0 929.4 1.1 32
2019-03-16 20:00:00 16.6 9 Sudeste 22 Sudeste 0 929 0.6 27
2019-03-16 19:00:00 22.1 4 Nordeste 26 Oeste 0 928.6 -0.3 19
2019-03-16 18:00:00 24.1 14 Noroeste 27 Sudoeste 0 928.3 -1.4 13
2019-03-16 17:00:00 24.9 14 Oeste 23 Noroeste 0 928.4 -2.2 12
2019-03-16 16:00:00 25.3 6 Sur 18 Noroeste 0 928.9 -2.8 12
2019-03-16 15:00:00 23.6 8 Oeste 19 Norte 0 929.7 -2.7 15
2019-03-16 14:00:00 22.7 6 Noroeste 15 Norte 0 930.6 -2.4 15
2019-03-16 13:00:00 21.2 5 Norte 13 Norte 0 931.7 -1.7 20
2019-03-16 12:00:00 18 5 Norte 11 Norte 0 932.4 -1.3 28
2019-03-16 11:00:00 12.6 7 Norte 12 Norte 0 933 -0.4 40
2019-03-16 10:00:00 8.3 3 Oeste 7 Oeste 0 933.4 0.1 47
2019-03-16 09:00:00 3.9 3 Oeste 5 Noroeste 0 933.7 0.3 63
2019-03-16 08:00:00 0.1 2 Oeste 8 Sudeste 0 933.4 0 83
2019-03-16 07:00:00 -0.3 5 Sur 9 Sudeste 0 933.3 -0.1 83
2019-03-16 06:00:00 0.5 8 Sudeste 9 Sudeste 0 933.4 -0.8 78
2019-03-16 05:00:00 1.7 2 Sur 9 Sudeste 0 933.4 -1.3 74
2019-03-16 04:00:00 2.3 6 Sur 9 Sudeste 0 933.4 -1.6 73
2019-03-16 03:00:00 3.5 4 Sur 11 Sudeste 0 934.2 -0.9 65
2019-03-16 02:00:00 4.9 7 Sudeste 10 Sudeste 0 934.7 -0.4 57
2019-03-16 01:00:00 6.4 7 Sur 10 Sudeste 0 935 0.3 50
2019-03-16 00:00:00 7.9 6 Sudeste 9 Sudeste 0 935.1 1 44
2019-03-15 23:00:00 10 9 Sur 15 Sudeste 0 935.1 1.6 43
2019-03-15 22:00:00 12.7 8 Este 16 Sudeste 0 934.7 1.8 36
2019-03-15 21:00:00 14.8 10 Sudeste 24 Sur 0 934.1 1.7 29
2019-03-15 20:00:00 16.7 12 Sur 20 Sur 0 933.5 1 26
2019-03-15 19:00:00 21.1 14 Sudeste 26 Sudeste 0 932.9 0.1 18
2019-03-15 18:00:00 25.2 4 Oeste 14 Noroeste 0 932.4 -0.9 12
2019-03-15 17:00:00 25 5 Oeste 17 Noroeste 0 932.5 -1.6 11
2019-03-15 16:00:00 24.3 7 Norte 15 Norte 0 932.8 -2.2 14
2019-03-15 15:00:00 23 8 Norte 13 Norte 0 933.3 -2.5 15
2019-03-15 14:00:00 21.3 5 Norte 11 Nordeste 0 934.1 -1.9 17
2019-03-15 13:00:00 18.8 5 Noroeste 11 Noroeste 0 935 -1.3 21
2019-03-15 12:00:00 14.8 3 Norte 9 Noroeste 0 935.8 -0.5 30
2019-03-15 11:00:00 10.2 6 Norte 10 Nordeste 0 936 0 40
2019-03-15 10:00:00 6.1 6 Norte 9 Norte 0 936.3 0.5 52
2019-03-15 09:00:00 2 0 Calma 6 Oeste 0 936.3 0.5 63
2019-03-15 08:00:00 -1.6 4 Sudeste 9 Sudeste 0 936 0.3 83
2019-03-15 07:00:00 -1.5 8 Sur 10 Sudeste 0 935.8 0.2 81
2019-03-15 06:00:00 -0.9 5 Sur 10 Sudeste 0 935.8 -0.3 80
2019-03-15 05:00:00 0.2 3 Nordeste 7 Sudeste 0 935.7 -0.6 71
2019-03-15 04:00:00 0.5 6 Sudeste 7 Sudeste 0 935.6 -0.7 67
2019-03-15 03:00:00 2.1 7 Sur 10 Sudeste 0 936.1 -0.4 63
2019-03-15 02:00:00 3.6 4 Sudeste 10 Sur 0 936.3 0 50
2019-03-15 01:00:00 3.9 8 Sur 10 Sur 0 936.3 0.3 47
2019-03-15 00:00:00 5.4 6 Sudeste 13 Sudeste 0 936.5 0.8 43
2019-03-14 23:00:00 7.9 11 Sudeste 13 Sudeste 0 936.3 1 37
2019-03-14 22:00:00 12.6 9 Sudoeste 18 Oeste 0 936 1.2 28
2019-03-14 21:00:00 13.2 6 Oeste 17 Oeste 0 935.7 1.2 25
2019-03-14 20:00:00 14.5 9 Oeste 27 Oeste 0 935.3 0.8 23
2019-03-14 19:00:00 17 17 Oeste 29 Oeste 0 934.8 0.3 18
2019-03-14 18:00:00 19.1 17 Oeste 26 Oeste 0 934.5 -0.4 14
2019-03-14 17:00:00 20.3 11 Oeste 22 Oeste 0 934.5 -1.3 12
2019-03-14 16:00:00 19.8 11 Noroeste 24 Oeste 0 934.5 -2 10
2019-03-14 15:00:00 19 13 Oeste 32 Oeste 0 934.9 -2 13
2019-03-14 14:00:00 17.4 15 Noroeste 29 Noroeste 0 935.8 -1.7 17
2019-03-14 13:00:00 15.9 14 Noroeste 27 Noroeste 0 936.5 -1.5 24
2019-03-14 12:00:00 13.6 13 Noroeste 23 Oeste 0 936.9 -0.7 26
2019-03-14 11:00:00 8.3 5 Norte 12 Norte 0 937.5 0.3 48
2019-03-14 10:00:00 4.7 4 Noroeste 8 Noroeste 0 938 1.1 61
2019-03-14 09:00:00 0.8 4 Sudeste 6 Sudeste 0 937.6 1.4 82
2019-03-14 08:00:00 -2 3 Sur 8 Sudeste 0 937.2 1 90
2019-03-14 07:00:00 -1.8 6 Sur 9 Sudeste 0 936.9 0.4 88
2019-03-14 06:00:00 -0.5 2 Sudeste 8 Sudeste 0 936.2 -0.8 84
2019-03-14 05:00:00 0.5 5 Sur 13 Sudeste 0 936.2 -0.4 80
2019-03-14 04:00:00 1.8 6 Sur 10 Sur 0 936.5 0.2 75
2019-03-14 03:00:00 2.3 7 Sur 11 Sudeste 0 937 0.9 76
2019-03-14 02:00:00 3.3 8 Sur 10 Sudeste 0 936.6 0.6 72
2019-03-14 01:00:00 4.6 4 Sur 9 Sur 0 936.3 0.6 67
2019-03-14 00:00:00 4.7 9 Sudeste 12 Sudeste 0 936.1 1.2 67
2019-03-13 23:00:00 7.3 5 Sur 8 Sudeste 0 936 1.6 59
2019-03-13 22:00:00 9.2 4 Este 12 Oeste 0 935.7 2.1 52
2019-03-13 21:00:00 12.4 9 Oeste 21 Oeste 0 934.9 1.8 41
2019-03-13 20:00:00 13.5 8 Noroeste 23 Oeste 0 934.4 1.5 39
2019-03-13 19:00:00 16 17 Oeste 30 Oeste 0 933.6 0.6 33
2019-03-13 18:00:00 17.9 18 Oeste 31 Oeste 0 933.1 0.1 31
2019-03-13 17:00:00 18.3 21 Oeste 37 Oeste 0 932.9 -0.4 30
2019-03-13 16:00:00 18 18 Noroeste 31 Oeste 0 933 -0.4 32
2019-03-13 15:00:00 17.5 21 Oeste 35 Oeste 0 933 -0.3 37
2019-03-13 14:00:00 17.5 20 Oeste 34 Oeste 0 933.3 -0.1 38
2019-03-13 13:00:00 16.5 20 Noroeste 35 Noroeste 0 933.4 0 41
2019-03-13 12:00:00 15 16 Noroeste 31 Noroeste 0 933.3 0.1 47
2019-03-13 11:00:00 14.1 15 Noroeste 23 Noroeste 0 933.4 1.3 56
2019-03-13 10:00:00 11.5 13 Noroeste 22 Oeste 0 933.4 1.3 71
2019-03-13 09:00:00 10.3 9 Noroeste 28 Noroeste 0 933.2 1.4 76
2019-03-13 08:00:00 9.2 3 Noroeste 21 Norte 0 932.1 0.5 80
2019-03-13 07:00:00 9.2 2 Sudeste 17 Oeste 0 932.1 -0.3 77
2019-03-13 06:00:00 10.8 12 Oeste 27 Oeste 0 931.8 -1.6 71
2019-03-13 05:00:00 11.9 12 Oeste 26 Noroeste 0 931.6 -2.1 65
2019-03-13 04:00:00 12.8 10 Norte 28 Norte 0 932.4 -1.7 60
2019-03-13 03:00:00 13.3 13 Noroeste 25 Norte 0 933.4 -1.3 56
2019-03-13 02:00:00 13.3 15 Noroeste 24 Oeste 0 933.7 -1.1 52
2019-03-13 01:00:00 14.6 17 Oeste 27 Oeste 0 934.1 -0.5 49
2019-03-13 00:00:00 14.7 18 Oeste 26 Oeste 0 934.7 0.4 48
2019-03-12 23:00:00 13.8 11 Oeste 16 Oeste 0 934.8 0.9 47
2019-03-12 22:00:00 14.4 9 Oeste 17 Oeste 0 934.6 1.2 50
2019-03-12 21:00:00 15.9 12 Oeste 16 Oeste 0 934.3 1.1 45
2019-03-12 20:00:00 17.6 12 Oeste 22 Oeste 0 933.9 0.4 38
2019-03-12 19:00:00 20.2 17 Oeste 30 Noroeste 0 933.4 -0.4 31
2019-03-12 18:00:00 21.9 19 Noroeste 31 Noroeste 0 933.2 -1.3 29
2019-03-12 17:00:00 23.3 17 Oeste 31 Noroeste 0 933.5 -1.9 26
2019-03-12 16:00:00 23.7 15 Noroeste 31 Oeste 0 933.8 -2.8 23
2019-03-12 15:00:00 23.7 18 Oeste 38 Oeste 0 934.5 -2.9 16
2019-03-12 14:00:00 22.1 17 Noroeste 31 Noroeste 0 935.4 -2.5 28
2019-03-12 13:00:00 20.1 11 Noroeste 22 Norte 0 936.6 -1.6 39
2019-03-12 12:00:00 15.6 4 Norte 10 Norte 0 937.4 -0.8 58
2019-03-12 11:00:00 11.5 3 Noroeste 8 Norte 0 937.9 -0.2 77
2019-03-12 10:00:00 7.4 0 Calma 8 Norte 0 938.2 0 96
2019-03-12 09:00:00 4.8 5 Noroeste 8 Noroeste 0 938.2 0.1 98
2019-03-12 08:00:00 2.4 6 Sur 7 Sur 0 938.1 -0.3 97
2019-03-12 07:00:00 3.7 4 Oeste 11 Sudeste 0 938.2 -0.1 97
2019-03-12 06:00:00 3.7 8 Sudeste 10 Sur 0 938.1 -0.5 97
2019-03-12 05:00:00 4.2 8 Sudeste 12 Sudeste 0 938.4 -0.2 96
2019-03-12 04:00:00 5.3 6 Sur 8 Sur 0 938.3 -0.8 94
2019-03-12 03:00:00 7 3 Oeste 15 Este 0 938.6 -0.7 96
2019-03-12 02:00:00 7.9 9 Sudeste 16 Sudeste 0 938.6 -0.6 96
2019-03-12 01:00:00 8.4 13 Sudeste 20 Sudeste 0 939.1 0.6 95
2019-03-12 00:00:00 9.4 10 Sudeste 17 Sudeste 0 939.3 1.3 89
2019-03-11 23:00:00 10.4 8 Sudeste 17 Sudeste 0 939.2 2 83
2019-03-11 22:00:00 11.1 11 Sudeste 19 Sudeste 0 938.5 2.3 79
2019-03-11 21:00:00 12.2 11 Sudeste 21 Sudeste 0 938 2.5 73
2019-03-11 20:00:00 13.7 13 Sudeste 29 Sudeste 0 937.2 2.3 63
2019-03-11 19:00:00 17.1 16 Sudeste 35 Sudeste 0 936.2 1.2 51
2019-03-11 18:00:00 20.5 23 Sudeste 36 Sudeste 0 935.5 0.2 39
2019-03-11 17:00:00 23.9 17 Oeste 28 Oeste 0 934.9 -1.1 18
2019-03-11 16:00:00 24.1 16 Oeste 29 Oeste 0 935 -1.7 21
2019-03-11 15:00:00 24.1 9 Oeste 22 Oeste 0 935.3 -1.8 22
2019-03-11 14:00:00 22.7 7 Oeste 21 Norte 0 936 -1.6 26
2019-03-11 13:00:00 20.8 12 Noroeste 20 Noroeste 0 936.7 -0.8 36
2019-03-11 12:00:00 16.6 5 Noroeste 10 Norte 0 937.1 0 46
2019-03-11 11:00:00 11.8 5 Norte 12 Norte 0 937.6 0.6 58
2019-03-11 10:00:00 9 4 Norte 9 Noroeste 0 937.5 1 68
2019-03-11 09:00:00 5.1 3 Sur 7 Sudeste 0 937.1 0.9 91
2019-03-11 08:00:00 2.6 3 Sudeste 10 Sudeste 0 937 1.1 92
2019-03-11 07:00:00 2.7 6 Sudeste 7 Sudeste 0 936.5 0.4 85
2019-03-11 06:00:00 3.9 0 Calma 6 Sur 0 936.2 -0.1 81
2019-03-11 05:00:00 4.9 4 Norte 12 Sur 0 935.9 -0.9 79
2019-03-11 04:00:00 5.5 4 Sur 7 Sudeste 0 936.1 -1 78
2019-03-11 03:00:00 6.5 5 Sur 10 Sudeste 0 936.3 -0.9 72
2019-03-11 02:00:00 7.2 9 Sudeste 11 Sudeste 0 936.8 -0.3 67
2019-03-11 01:00:00 8.1 9 Sudeste 12 Sudeste 0 937.1 0.4 63
2019-03-11 00:00:00 9.7 8 Sudeste 13 Oeste 0 937.2 0.8 57
2019-03-10 23:00:00 15 6 Oeste 17 Oeste 0 937.1 0.9 45
2019-03-10 22:00:00 15.7 10 Oeste 19 Oeste 0 936.7 1 42
2019-03-10 21:00:00 16.6 12 Oeste 24 Oeste 0 936.4 0.9 38
2019-03-10 20:00:00 17.5 13 Oeste 22 Oeste 0 936.2 0.5 35
2019-03-10 19:00:00 19.8 14 Oeste 28 Oeste 0 935.7 -0.3 30
2019-03-10 18:00:00 21.9 18 Oeste 27 Oeste 0 935.5 -1 26
2019-03-10 17:00:00 23.9 9 Oeste 18 Oeste 0 935.7 -1.7 20
2019-03-10 16:00:00 23.6 6 Noroeste 17 Oeste 0 936 -2.5 21
2019-03-10 15:00:00 22.7 5 Norte 16 Noroeste 0 936.5 -2.7 23
2019-03-10 14:00:00 20.7 8 Noroeste 17 Noroeste 0 937.4 -2.3 26
2019-03-10 13:00:00 18.1 7 Norte 13 Noroeste 0 938.5 -1.6 33
2019-03-10 12:00:00 14.3 3 Norte 12 Norte 0 939.2 -0.7 42
2019-03-10 11:00:00 10.1 3 Noroeste 6 Norte 0 939.7 0.1 54
2019-03-10 10:00:00 5.7 2 Noroeste 6 Noroeste 0 940.1 0.5 70
2019-03-10 09:00:00 2.1 0 Calma 5 Noroeste 0 939.9 0.5 86
2019-03-10 08:00:00 -0.5 3 Sur 8 Sudeste 0 939.6 0.3 92
2019-03-10 07:00:00 -0.2 8 Sudeste 10 Sudeste 0 939.6 0.2 91
2019-03-10 06:00:00 0.4 2 Sudeste 5 Sur 0 939.4 -0.5 86
2019-03-10 05:00:00 1.1 0 Calma 6 Sudeste 0 939.3 -0.8 83
2019-03-10 04:00:00 1.4 4 Sudeste 9 Sudeste 0 939.4 -1 80
2019-03-10 03:00:00 2.9 7 Sudeste 11 Sudeste 0 939.9 -0.5 76
2019-03-10 02:00:00 4 9 Sur 12 Sur 0 940.1 0 70
2019-03-10 01:00:00 5.7 7 Sur 12 Este 0 940.4 0.7 62
2019-03-10 00:00:00 7.1 4 Nordeste 12 Sudeste 0 940.4 1.2 56
2019-03-09 23:00:00 8.9 9 Sudeste 18 Sudeste 0 940.1 1.4 49
2019-03-09 22:00:00 10 12 Sudeste 26 Sudeste 0 939.7 1.9 47
2019-03-09 21:00:00 11.3 13 Sudeste 27 Sudeste 0 939.2 1.9 43
2019-03-09 20:00:00 12.9 12 Sur 23 Sudeste 0 938.7 1.3 39
2019-03-09 19:00:00 17.8 10 Sudeste 20 Sudeste 0 937.8 0.1 28
2019-03-09 18:00:00 20.2 9 Noroeste 17 Noroeste 0 937.3 -0.6 22
2019-03-09 17:00:00 20.7 6 Noroeste 15 Noroeste 0 937.4 -1.3 22
2019-03-09 16:00:00 20.2 9 Norte 30 Este 0 937.7 -2.1 25
2019-03-09 15:00:00 19.4 10 Norte 17 Nordeste 0 937.9 -2.3 26
2019-03-09 14:00:00 18.1 8 Nordeste 27 Nordeste 0 938.7 -1.7 30
2019-03-09 13:00:00 16.2 8 Nordeste 17 Norte 0 939.8 -0.8 33
2019-03-09 12:00:00 13.4 6 Norte 11 Noroeste 0 940.2 0.4 43
2019-03-09 11:00:00 8.4 3 Norte 7 Sudeste 0 940.4 1.6 57
2019-03-09 10:00:00 4.3 4 Oeste 9 Noroeste 0 940.6 2.1 74
2019-03-09 09:00:00 1.7 4 Noroeste 8 Noroeste 0 939.8 1.9 85
2019-03-09 08:00:00 -1.3 2 Sur 7 Sudeste 0 938.8 1.4 93
2019-03-09 07:00:00 -1.2 0 Calma 6 Sudeste 0 938.5 1.3 90
2019-03-09 06:00:00 -0.2 3 Sur 7 Sudeste 0 937.9 0.4 90
2019-03-09 05:00:00 -0.1 2 Sudoeste 6 Sudeste 0 937.4 0 89
2019-03-09 04:00:00 0.7 4 Sudeste 10 Sudeste 0 937.2 0.6 86
2019-03-09 03:00:00 1.4 8 Sudeste 10 Sudeste 0 937.5 1.6 84
2019-03-09 02:00:00 2.9 3 Sur 9 Este 0 937.4 2 71
2019-03-09 01:00:00 3.8 4 Nordeste 10 Sudeste 0 936.6 1.8 68
2019-03-09 00:00:00 5.3 9 Sudeste 12 Este 0 935.9 1.9 60
2019-03-08 23:00:00 6.7 9 Sudeste 12 Sur 0 935.4 2.6 61
2019-03-08 22:00:00 8.3 6 Sur 12 Este 0 934.8 3 60
2019-03-08 21:00:00 10.3 3 Nordeste 12 Este 0 934 3.2 47
2019-03-08 20:00:00 11.8 6 Noroeste 12 Noroeste 0 932.8 2.5 43
2019-03-08 19:00:00 14.1 5 Nordeste 22 Norte 0 931.8 1.5 32
2019-03-08 18:00:00 15.5 11 Noroeste 22 Oeste 0 930.8 0.3 32
2019-03-08 17:00:00 16.7 13 Noroeste 21 Norte 0 930.3 -0.4 27
2019-03-08 16:00:00 17.3 8 Sudoeste 17 Noroeste 0 930.3 -0.8 27
2019-03-08 15:00:00 16.1 6 Norte 16 Norte 0 930.5 -0.9 29
2019-03-08 14:00:00 14.4 6 Noroeste 16 Noroeste 0 930.7 -0.6 37
2019-03-08 13:00:00 12.7 4 Noroeste 12 Oeste 0 931.1 0.2 42
2019-03-08 12:00:00 9.8 5 Noroeste 14 Noroeste 0 931.4 1.2 56
2019-03-08 11:00:00 6.1 6 Norte 11 Norte 0 931.3 2 65
2019-03-08 10:00:00 2.3 3 Norte 8 Norte 0 930.9 1.9 74
2019-03-08 09:00:00 0 4 Norte 7 Oeste 0 930.2 1.8 80
2019-03-08 08:00:00 -1.9 3 Sudoeste 8 Oeste 0 929.3 1 87
2019-03-08 07:00:00 -1.2 6 Noroeste 17 Sudeste 0 929 0.8 88
2019-03-08 06:00:00 -1.6 8 Sur 10 Sur 0 928.4 0 91
2019-03-08 05:00:00 -1.1 4 Sur 10 Sudeste 0 928.3 0 85
2019-03-08 04:00:00 -0.5 3 Sudeste 9 Sudeste 0 928.2 0.2 84
2019-03-08 03:00:00 0.2 7 Sur 9 Sudeste 0 928.4 0.4 84
2019-03-08 02:00:00 1.2 6 Este 10 Sudeste 0 928.3 0.2 82
2019-03-08 01:00:00 3.2 5 Sur 9 Sudeste 0 928 0.3 75
2019-03-08 00:00:00 6 7 Oeste 12 Sudoeste 0 928 0.7 62
2019-03-07 23:00:00 6.1 7 Sudoeste 10 Sudoeste 0 928.1 1.4 61
2019-03-07 22:00:00 6.6 5 Oeste 15 Sudoeste 0 927.7 2 57
2019-03-07 21:00:00 7.9 8 Sudoeste 21 Oeste 0 927.3 2.2 49
2019-03-07 20:00:00 9.2 15 Oeste 24 Oeste 0 926.7 1.4 39
2019-03-07 19:00:00 11.4 8 Oeste 23 Noroeste 0 925.7 0.2 37
2019-03-07 18:00:00 12.9 12 Noroeste 28 Oeste 0 925.1 -0.8 35
2019-03-07 17:00:00 13.4 17 Oeste 33 Oeste 0 925.3 -1.3 37
2019-03-07 16:00:00 13.4 18 Noroeste 38 Noroeste 0 925.5 -2 37
2019-03-07 15:00:00 13.4 18 Noroeste 36 Noroeste 0 925.9 -2 39
2019-03-07 14:00:00 12.5 17 Noroeste 30 Noroeste 0 926.6 -1.5 40
2019-03-07 13:00:00 11.7 14 Oeste 30 Noroeste 0 927.5 -0.8 44
2019-03-07 12:00:00 10.1 18 Oeste 30 Noroeste 0 927.9 0.2 54
2019-03-07 11:00:00 8.4 15 Oeste 26 Oeste 0 928.1 1.4 64
2019-03-07 10:00:00 7.6 13 Oeste 22 Oeste 0 928.3 2.1 75
2019-03-07 09:00:00 5.4 3 Norte 10 Oeste 0 927.7 1.7 87
2019-03-07 08:00:00 5 4 Norte 12 Noroeste 0 926.7 1.3 85
2019-03-07 07:00:00 5.9 8 Noroeste 19 Oeste 0 926.2 0.6 78
2019-03-07 06:00:00 6.3 10 Noroeste 22 Oeste 0 926 0.4 77
2019-03-07 05:00:00 6.3 11 Oeste 19 Oeste 0 925.4 -0.5 79
2019-03-07 04:00:00 6.4 10 Oeste 33 Oeste 0 925.6 -0.4 80
2019-03-07 03:00:00 7.1 23 Oeste 35 Noroeste 0 925.6 -0.1 77
2019-03-07 02:00:00 6.7 14 Oeste 21 Oeste 0 925.9 0.5 79
2019-03-07 01:00:00 7 8 Noroeste 29 Oeste 0 926 1.2 77
2019-03-07 00:00:00 7.9 9 Oeste 18 Oeste 0 925.7 1.8 74
2019-03-06 23:00:00 8.4 10 Oeste 23 Oeste 0 925.4 2.6 75
2019-03-06 22:00:00 9.2 13 Oeste 32 Oeste 0 924.8 3.1 73
2019-03-06 21:00:00 9.2 9 Nordeste 39 Oeste 0 923.9 3.8 84
2019-03-06 20:00:00 10.3 22 Oeste 46 Oeste 0.2 922.8 3.4 81
2019-03-06 19:00:00 10.7 23 Oeste 55 Oeste 0.4 921.7 2.5 83
2019-03-06 18:00:00 14.7 32 Oeste 60 Oeste 0 920.1 1.6 50
2019-03-06 17:00:00 15.7 38 Sudoeste 66 Sudoeste 0 919.4 -0.4 44
2019-03-06 16:00:00 17.3 36 Oeste 69 Oeste 0 919.2 -1.5 43
2019-03-06 15:00:00 19.2 41 Sudoeste 73 Oeste 0 918.5 -2.8 29
2019-03-06 14:00:00 19.8 30 Oeste 55 Oeste 0 919.8 -1.8 21
2019-03-06 13:00:00 18.6 24 Oeste 39 Oeste 0 920.7 -1.3 19
2019-03-06 12:00:00 16.6 20 Oeste 32 Noroeste 0 921.3 -0.7 32
2019-03-06 11:00:00 13.4 3 Sudoeste 11 Sudeste 0 921.6 -0.2 52
2019-03-06 10:00:00 9.7 6 Sudeste 12 Este 0 922 0 74
2019-03-06 09:00:00 6.4 4 Sur 12 Sudeste 0 922 -0.2 80
2019-03-06 08:00:00 4.3 7 Sur 10 Sudeste 0 921.8 -0.7 91
2019-03-06 07:00:00 5 4 Sudoeste 7 Este 0 922 -0.9 89
2019-03-06 06:00:00 5.4 5 Sur 10 Sudeste 0 922.2 -1.5 88
2019-03-06 05:00:00 5.6 6 Sudeste 9 Sudeste 0 922.5 -2 88
2019-03-06 04:00:00 6.3 6 Sudoeste 12 Sur 0 922.9 -2.2 90
2019-03-06 03:00:00 6.3 9 Sudeste 13 Sudeste 0 923.7 -2.1 88
2019-03-06 02:00:00 8.1 4 Sudoeste 8 Sudoeste 0 924.5 -1.7 82
2019-03-06 01:00:00 8.7 4 Nordeste 10 Norte 0 925.1 -1.3 77
2019-03-06 00:00:00 9.7 4 Oeste 10 Sudeste 0 925.8 -0.7 74
2019-03-05 23:00:00 9.5 9 Sur 12 Sur 0 926.2 -0.4 77
2019-03-05 22:00:00 10.3 7 Sudeste 10 Sur 0 926.4 0 75
2019-03-05 21:00:00 13.1 5 Oeste 8 Oeste 0 926.5 0.3 64
2019-03-05 20:00:00 14.2 6 Oeste 14 Oeste 0 926.6 0 59
2019-03-05 19:00:00 15.9 9 Norte 24 Noroeste 0 926.4 -0.6 53
2019-03-05 18:00:00 17.7 14 Noroeste 28 Noroeste 0 926.2 -1.1 45
2019-03-05 17:00:00 18.3 14 Noroeste 28 Noroeste 0 926.6 -1.9 44
2019-03-05 16:00:00 18.1 16 Noroeste 33 Noroeste 0 927 -2.1 45
2019-03-05 15:00:00 18.6 18 Oeste 37 Oeste 0 927.3 -2.2 41
2019-03-05 14:00:00 17.2 13 Oeste 31 Noroeste 0 928.5 -0.9 44
2019-03-05 13:00:00 16.4 22 Oeste 34 Oeste 0 929.1 -0.4 45
2019-03-05 12:00:00 15.6 18 Oeste 33 Oeste 0 929.5 0.3 51
2019-03-05 11:00:00 14.1 15 Oeste 23 Noroeste 0 929.4 0.4 60
2019-03-05 10:00:00 11.4 6 Norte 12 Noroeste 0 929.5 0.5 73
2019-03-05 09:00:00 8 4 Sudeste 8 Sudeste 0 929.2 0.2 87
2019-03-05 08:00:00 7.5 5 Este 10 Este 0 929 0 86
2019-03-05 07:00:00 8.2 8 Noroeste 14 Oeste 0 929 -0.2 87
2019-03-05 06:00:00 8.2 9 Oeste 15 Noroeste 0 929 -0.5 87
2019-03-05 05:00:00 8.4 10 Oeste 18 Noroeste 0 929 -1 86
2019-03-05 04:00:00 7.6 10 Noroeste 14 Noroeste 0 929.2 -0.9 88
2019-03-05 03:00:00 8.2 5 Oeste 15 Oeste 0 929.5 -1 81
2019-03-05 02:00:00 9 9 Oeste 13 Oeste 0 930 -0.5 83
2019-03-05 01:00:00 9.6 7 Oeste 17 Noroeste 0 930.1 0 77
2019-03-05 00:00:00 10.6 9 Oeste 18 Noroeste 0 930.5 0.6 71
2019-03-04 23:00:00 11.8 12 Oeste 24 Noroeste 0 930.5 1.1 67
2019-03-04 22:00:00 12.4 17 Oeste 31 Oeste 0 930.1 1.1 63
2019-03-04 21:00:00 12.9 16 Oeste 28 Oeste 0 929.9 1 60
2019-03-04 20:00:00 13.6 19 Oeste 32 Oeste 0 929.4 0.5 57
2019-03-04 19:00:00 15.7 17 Oeste 27 Noroeste 0 929 -0.3 47
2019-03-04 18:00:00 17.6 14 Noroeste 28 Oeste 0 928.9 -0.6 39
2019-03-04 17:00:00 19 17 Oeste 29 Oeste 0 928.9 -1.1 29
2019-03-04 16:00:00 18.4 15 Noroeste 32 Noroeste 0 929.3 -1.7 30
2019-03-04 15:00:00 19.1 21 Oeste 35 Noroeste 0 929.5 -1.7 30
2019-03-04 14:00:00 19 19 Oeste 34 Oeste 0 930 -1.6 33
2019-03-04 13:00:00 17.8 18 Noroeste 32 Noroeste 0 931 -0.5 39
2019-03-04 12:00:00 16.4 17 Oeste 32 Oeste -- 931.2 -0.3 44
2019-03-04 11:00:00 14.6 22 Oeste 33 Oeste 0 931.6 0.9 48
2019-03-04 10:00:00 12.6 11 Oeste 21 Oeste 0 931.5 0.6 57
2019-03-04 09:00:00 9.4 12 Oeste 20 Oeste 0 931.5 1 58
2019-03-04 08:00:00 8 7 Oeste 16 Oeste 0 930.7 0.1 61
2019-03-04 07:00:00 8.8 12 Noroeste 20 Oeste 0 930.9 0 57
2019-03-04 06:00:00 9.1 12 Oeste 18 Oeste 0 930.5 -0.9 55
2019-03-04 05:00:00 9 11 Oeste 17 Oeste 0 930.6 -1 53
2019-03-04 04:00:00 10.7 12 Oeste 19 Oeste 0 930.9 -0.6 48
2019-03-04 03:00:00 9.6 6 Noroeste 14 Oeste 0 931.4 -0.4 51
2019-03-04 02:00:00 10.3 6 Noroeste 13 Noroeste 0 931.6 -0.4 45
2019-03-04 01:00:00 10 6 Oeste 18 Oeste 0 931.5 -0.3 42
2019-03-04 00:00:00 6.8 6 Sudeste 12 Sudeste 0 931.8 0.1 51
2019-03-03 23:00:00 8.2 9 Sur 13 Sudeste 0 932 0.6 50
2019-03-03 22:00:00 10.5 5 Sudeste 13 Sudeste 0 931.8 0.9 45
2019-03-03 21:00:00 12.5 9 Sur 18 Sur 0 931.7 0.7 42
2019-03-03 20:00:00 15.4 10 Sur 17 Sur 0 931.4 0 33
2019-03-03 19:00:00 22 2 Oeste 10 Noroeste 0 930.9 -1.1 22
2019-03-03 18:00:00 23.2 4 Noroeste 15 Noroeste 0 931 -1.5 17
2019-03-03 17:00:00 22.9 8 Noroeste 18 Noroeste 0 931.4 -2.1 18
2019-03-03 16:00:00 22.4 11 Oeste 18 Oeste 0 932 -2.6 18
2019-03-03 15:00:00 21.7 7 Noroeste 15 Oeste 0 932.5 -2.7 21
2019-03-03 14:00:00 20.3 6 Noroeste 14 Norte 0 933.5 -2.1 24
2019-03-03 13:00:00 17.6 5 Norte 10 Noroeste 0 934.6 -1.1 34
2019-03-03 12:00:00 13.4 4 Norte 13 Norte 0 935.2 -0.3 49
2019-03-03 11:00:00 9.1 5 Norte 13 Norte 0 935.6 0.4 61
2019-03-03 10:00:00 6.5 5 Norte 9 Norte 0 935.7 1.5 71
2019-03-03 09:00:00 2 8 Sur 11 Sur 0 935.5 1.1 92
2019-03-03 08:00:00 0.4 4 Noroeste 11 Noroeste 0 935.2 1 90
2019-03-03 07:00:00 0.2 10 Sudeste 11 Sudeste 0 934.2 0 91
2019-03-03 06:00:00 0.4 5 Sur 6 Sur 0 934.4 -0.2 89
2019-03-03 05:00:00 1.3 4 Sur 6 Sudeste 0 934.2 -0.7 88
2019-03-03 04:00:00 2.5 3 Oeste 11 Sur 0 934.2 -0.5 83
2019-03-03 03:00:00 3.2 4 Este 9 Sudeste 0 934.6 -0.3 78
2019-03-03 02:00:00 4.3 4 Sur 11 Sudeste 0 934.9 0.1 77
2019-03-03 01:00:00 5.7 8 Sur 11 Sudeste 0 934.7 0.4 66
2019-03-03 00:00:00 6.5 8 Sudeste 14 Este 0 934.9 1.1 59
2019-03-02 23:00:00 8.9 6 Sudeste 14 Oeste 0 934.8 1.4 59
2019-03-02 22:00:00 13 6 Oeste 16 Oeste 0 934.3 1.4 44
2019-03-02 21:00:00 13.9 9 Oeste 18 Oeste 0 933.8 1.2 43
2019-03-02 20:00:00 14.9 10 Oeste 23 Oeste 0 933.4 1 42
2019-03-02 19:00:00 16.8 14 Oeste 27 Oeste 0 932.9 0.5 37
2019-03-02 18:00:00 18.9 18 Oeste 31 Noroeste 0 932.6 0 29
2019-03-02 17:00:00 21 9 Oeste 16 Oeste 0 932.4 -0.8 20
2019-03-02 16:00:00 20.7 6 Norte 12 Noroeste 0 932.4 -1.8 20
2019-03-02 15:00:00 20.8 5 Oeste 12 Norte 0 932.6 -2.1 21
2019-03-02 14:00:00 19.3 6 Noroeste 14 Norte 0 933.2 -1.9 29
2019-03-02 13:00:00 17.2 5 Noroeste 10 Noroeste 0 934.2 -0.7 33
2019-03-02 12:00:00 13.3 3 Norte 13 Norte 0 934.7 0.2 56
2019-03-02 11:00:00 10 4 Noroeste 10 Noroeste 0 935.1 1.1 66
2019-03-02 10:00:00 7 4 Norte 11 Norte 0 934.9 1.1 77
2019-03-02 09:00:00 4.8 2 Nordeste 11 Sur 0 934.5 1.4 73
2019-03-02 08:00:00 4.5 6 Sur 10 Sudoeste 0 934 1.1 68
2019-03-02 07:00:00 6.1 8 Sudoeste 14 Noroeste 0 933.8 0.8 68
2019-03-02 06:00:00 8 9 Oeste 20 Oeste 0 933.1 0 71
2019-03-02 05:00:00 9 14 Oeste 21 Oeste 0 932.9 -0.2 67
2019-03-02 04:00:00 9.6 11 Oeste 25 Oeste 0 933 0 63
2019-03-02 03:00:00 10.4 13 Oeste 26 Oeste 0 933.1 -0.1 59
2019-03-02 02:00:00 11.3 17 Oeste 26 Oeste 0 933.1 -0.4 55
2019-03-02 01:00:00 11.7 18 Oeste 30 Oeste 0 933 -0.2 53
2019-03-02 00:00:00 11.6 14 Oeste 24 Oeste 0 933.2 0.4 54
2019-03-01 23:00:00 12.3 11 Oeste 31 Oeste 0 933.5 1.4 49
2019-03-01 22:00:00 12.7 16 Oeste 29 Oeste 0 933.2 1.4 48
2019-03-01 21:00:00 13.7 13 Noroeste 30 Oeste 0 932.8 1.5 43
2019-03-01 20:00:00 14.5 17 Oeste 25 Oeste 0 932.1 0.9 37
2019-03-01 19:00:00 15.6 7 Noroeste 24 Noroeste 0 931.8 0.5 31
2019-03-01 18:00:00 17.8 15 Oeste 26 Oeste 0 931.3 -0.3 24
2019-03-01 17:00:00 19.4 17 Oeste 28 Noroeste 0 931.2 -1.1 22
2019-03-01 16:00:00 19.3 17 Noroeste 30 Noroeste 0 931.3 -2.1 22
2019-03-01 15:00:00 19.3 19 Noroeste 29 Oeste 0 931.6 -2.5 22
2019-03-01 14:00:00 19.2 15 Noroeste 27 Noroeste 0 932.3 -2.3 20
2019-03-01 13:00:00 16.7 4 Norte 12 Norte 0 933.4 -1.4 30
2019-03-01 12:00:00 13.2 7 Norte 11 Noroeste 0 934.1 -0.6 36
2019-03-01 11:00:00 9 3 Oeste 7 Noroeste 0 934.6 0.2 49
2019-03-01 10:00:00 4.8 3 Oeste 6 Noroeste 0 934.8 0.6 64
2019-03-01 09:00:00 2.2 5 Noroeste 8 Noroeste 0 934.7 0.5 73
2019-03-01 08:00:00 0.1 3 Sudeste 9 Sur 0 934.4 0.2 84
2019-03-01 07:00:00 0 8 Sudeste 9 Sudeste 0 934.2 0.1 85
2019-03-01 06:00:00 0.7 4 Sur 9 Sudeste 0 934.2 -0.4 83
2019-03-01 05:00:00 1.8 4 Sudoeste 10 Sudeste 0 934.2 -0.5 78
2019-03-01 04:00:00 2.3 6 Sur 9 Sur 0 934.1 -0.8 76
2019-03-01 03:00:00 3.7 5 Sudeste 7 Sudeste 0 934.6 -0.7 67
2019-03-01 02:00:00 5.8 4 Sudoeste 11 Sudeste 0 934.7 -0.8 53
2019-03-01 01:00:00 5.3 9 Sudeste 11 Sudeste 0 934.9 -0.4 56
2019-03-01 00:00:00 7.1 6 Sudeste 12 Sudeste 0 935.3 0.1 49
2019-02-28 23:00:00 8.4 7 Sudeste 13 Sudeste 0 935.5 0.6 45
2019-02-28 22:00:00 11.9 7 Sur 16 Sur 0 935.3 1 38
2019-02-28 21:00:00 14.1 8 Sudoeste 17 Sudoeste 0 935.2 0.8 31
2019-02-28 20:00:00 16.5 13 Oeste 24 Oeste 0 934.9 0.3 25
2019-02-28 19:00:00 18.8 12 Oeste 18 Oeste 0 934.3 -0.5 21
2019-02-28 18:00:00 21.3 12 Oeste 20 Noroeste 0 934.4 -0.7 17
2019-02-28 17:00:00 21.9 11 Noroeste 24 Oeste 0 934.6 -1.4 15
2019-02-28 16:00:00 21.9 16 Oeste 22 Oeste 0 934.8 -2.2 13
2019-02-28 15:00:00 21 9 Oeste 16 Noroeste 0 935.1 -2.4 16
2019-02-28 14:00:00 18.9 7 Norte 13 Noroeste 0 936 -1.8 24
2019-02-28 13:00:00 16.3 5 Norte 11 Norte 0 937 -0.9 28
2019-02-28 12:00:00 12.6 4 Norte 11 Norte 0 937.5 -0.4 33
2019-02-28 11:00:00 8.4 5 Noroeste 9 Norte 0 937.8 0.2 47
2019-02-28 10:00:00 4.2 4 Norte 7 Noroeste 0 937.9 0.6 62
2019-02-28 09:00:00 -0.6 2 Sur 5 Sudeste 0 937.9 0.9 90
2019-02-28 08:00:00 -2.4 2 Sur 4 Sur 0 937.6 0.8 87
2019-02-28 07:00:00 -2 4 Sur 9 Sudeste 0 937.3 0.4 87
2019-02-28 06:00:00 -1.5 6 Sudeste 9 Sudeste 0 937 -0.4 85
2019-02-28 05:00:00 -0.6 3 Sur 8 Sudeste 0 936.8 -0.7 78
2019-02-28 04:00:00 0.3 4 Sudeste 8 Sudeste 0 936.9 -0.5 77
2019-02-28 03:00:00 1.9 6 Sur 11 Sudeste 0 937.4 0.1 66
2019-02-28 02:00:00 1.9 6 Sudeste 8 Sudeste 0 937.5 0.5 69
2019-02-28 01:00:00 4.3 4 Sudoeste 12 Sudeste 0 937.4 0.9 53
2019-02-28 00:00:00 5.1 7 Sudeste 13 Sudeste 0 937.3 1.2 51
2019-02-27 23:00:00 7.1 9 Sur 15 Oeste 0 937 1 45
2019-02-27 22:00:00 7.5 8 Sudoeste 12 Sur 0 936.5 1.2 45
2019-02-27 21:00:00 10.8 6 Sur 18 Sur 0 936.1 1.2 39
2019-02-27 20:00:00 14 11 Sur 20 Sudoeste 0 936 1.2 33
2019-02-27 19:00:00 17.9 13 Oeste 22 Oeste 0 935.3 0.3 20
2019-02-27 18:00:00 21.3 5 Norte 12 Noroeste 0 934.9 -0.5 15
2019-02-27 17:00:00 21.9 6 Oeste 14 Norte 0 934.8 -1.3 15
2019-02-27 16:00:00 21.3 5 Norte 15 Noroeste 0 935 -2 18
2019-02-27 15:00:00 19.6 6 Norte 14 Nordeste 0 935.4 -2.1 19
2019-02-27 14:00:00 18.7 5 Norte 14 Noroeste 0 936.1 -2 24
2019-02-27 13:00:00 15.6 7 Noroeste 14 Noroeste 0 937 -1.3 28
2019-02-27 12:00:00 12.3 5 Norte 9 Norte 0 937.5 -0.4 34
2019-02-27 11:00:00 7 2 Sudoeste 6 Oeste 0 938.1 0.6 45
2019-02-27 10:00:00 2.6 3 Noroeste 6 Norte 0 938.3 0.8 62
2019-02-27 09:00:00 -1.2 0 Calma 8 Sur 0 937.9 0.5 90
2019-02-27 08:00:00 -3.3 6 Sudeste 8 Sudeste 0 937.5 0 87
2019-02-27 07:00:00 -2.2 6 Oeste 8 Oeste 0 937.5 0 88
2019-02-27 06:00:00 -2.5 2 Sur 9 Sudeste 0 937.4 -0.6 86
2019-02-27 05:00:00 -2.2 4 Sur 11 Sudeste 0 937.5 -0.5 86
2019-02-27 04:00:00 -1.9 4 Sudeste 6 Sudeste 0 937.5 -1 83
2019-02-27 03:00:00 -1.1 5 Sudeste 6 Sur 0 938 -0.5 80
2019-02-27 02:00:00 0 6 Sudeste 9 Sudeste 0 938 -0.4 75
2019-02-27 01:00:00 2 3 Sudoeste 5 Nordeste 0 938.5 0.1 62
2019-02-27 00:00:00 3.5 4 Nordeste 11 Sudeste 0 938.5 0.3 53
2019-02-26 23:00:00 4.5 8 Sudeste 14 Sudeste 0 938.4 0.3 52
2019-02-26 22:00:00 6.3 9 Sudeste 15 Sudeste 0 938.4 0.9 47
2019-02-26 21:00:00 8.5 9 Sudeste 21 Sudeste 0 938.2 1.2 40
2019-02-26 20:00:00 11.3 13 Sudeste 26 Sudeste 0 938.1 1.4 32
2019-02-26 19:00:00 14.1 16 Sudeste 31 Sudeste 0 937.5 1 27
2019-02-26 18:00:00 17.8 18 Sudeste 29 Este 0 937 0.5 22
2019-02-26 17:00:00 19.4 15 Este 34 Sudeste 0 936.7 -0.5 19
2019-02-26 16:00:00 19.6 19 Sudeste 36 Sudeste 0 936.5 -1.6 19
2019-02-26 15:00:00 20 18 Sudeste 33 Sudeste 0 936.5 -2.2 18
2019-02-26 14:00:00 19 15 Sudeste 33 Sudeste 0 937.2 -1.7 20
2019-02-26 13:00:00 17.9 18 Sudeste 32 Sur 0 938.1 -0.9 22
2019-02-26 12:00:00 12.8 4 Norte 8 Noroeste 0 938.7 0 32
2019-02-26 11:00:00 6.7 3 Norte 8 Noroeste 0 938.9 0.9 47
2019-02-26 10:00:00 2 2 Sudoeste 6 Oeste 0 939 1.3 61
2019-02-26 09:00:00 -1.6 3 Sudeste 7 Sudeste 0 938.7 1.3 88
2019-02-26 08:00:00 -3.6 6 Sudeste 8 Sudeste 0 938 0.5 85
2019-02-26 07:00:00 -3.7 5 Sudeste 7 Este 0 937.7 -0.3 85
2019-02-26 06:00:00 -3 6 Sur 10 Sudeste 0 937.4 -1 88
2019-02-26 05:00:00 -2.5 7 Sudeste 11 Sudeste 0 937.5 -1.4 82
2019-02-26 04:00:00 -0.8 4 Oeste 11 Sudeste 0 938 -1.1 71
2019-02-26 03:00:00 -0.5 10 Sur 13 Sudeste 0 938.4 -1 68
2019-02-26 02:00:00 0.4 9 Sur 13 Sur 0 938.9 -0.7 71
2019-02-26 01:00:00 2.6 5 Sur 8 Sur 0 939.1 -0.5 73
2019-02-26 00:00:00 4.6 4 Oeste 18 Sudeste 0 939.4 0.5 69
2019-02-25 23:00:00 5.4 11 Sudeste 17 Sudeste 0 939.6 1.1 68
2019-02-25 22:00:00 6.6 9 Sudeste 19 Sudeste 0 939.6 1.6 61
2019-02-25 21:00:00 8.4 14 Sudeste 31 Sudeste 0 938.9 1.4 52
2019-02-25 20:00:00 10.1 17 Sudeste 29 Sudeste 0 938.5 1.1 39
2019-02-25 19:00:00 13 16 Sudeste 30 Sudeste 0 938 0.4 29
2019-02-25 18:00:00 16.9 18 Sudeste 30 Sudeste 0 937.5 -0.5 22
2019-02-25 17:00:00 18.6 17 Sudeste 29 Sudeste 0 937.4 -1.3 19
2019-02-25 16:00:00 19.5 19 Sudeste 32 Sudeste 0 937.6 -2.3 16
2019-02-25 15:00:00 19.8 18 Sudeste 33 Sudeste 0 938 -2.6 15
2019-02-25 14:00:00 18.5 14 Sudeste 27 Sudeste 0 938.7 -2.4 20
2019-02-25 13:00:00 17.7 13 Sudeste 27 Este 0 939.9 -1.2 23
2019-02-25 12:00:00 15 14 Este 26 Sudeste 0 940.6 -0.4 31
2019-02-25 11:00:00 10.7 9 Sudeste 23 Sudeste 0 941.1 0.6 47
2019-02-25 10:00:00 3.8 4 Sudeste 10 Sudeste 0 941.1 1 90
2019-02-25 09:00:00 -0.9 4 Sudeste -- -- 0 941 1.1 96
2019-02-25 08:00:00 -2 4 Sur 6 Oeste 0 940.5 0.4 93
2019-02-25 07:00:00 -1.9 3 Oeste 9 Sudeste 0 940.1 -0.4 94
2019-02-25 06:00:00 -1.5 7 Sudeste 10 Sur 0 939.9 -0.7 93
2019-02-25 05:00:00 -0.9 6 Sur 10 Sudeste 0 940.1 -0.7 91
2019-02-25 04:00:00 0 0 Calma 9 Sur 0 940.5 -0.3 88
2019-02-25 03:00:00 1 9 Sur 12 Sur 0 940.6 -0.4 91
2019-02-25 02:00:00 2.2 4 Sur 9 Sur 0 940.8 -0.1 91
2019-02-25 01:00:00 3 8 Sur 12 Sudeste 0 940.8 0.2 89
2019-02-25 00:00:00 4.5 8 Sudeste 13 Sudeste 0 941 0.8 82
2019-02-24 23:00:00 5.9 9 Sur 14 Sudeste 0 940.9 1.3 85
2019-02-24 22:00:00 7 10 Sudeste 17 Sudeste 0 940.6 1.5 79
2019-02-24 21:00:00 8.7 3 Este 15 Sudeste 0 940.2 1.9 69
2019-02-24 20:00:00 10.5 8 Sur 28 Sur 0 939.6 1.6 50
2019-02-24 19:00:00 12.4 16 Sudeste 37 Sudeste 0 939.1 1.2 46
2019-02-24 18:00:00 15.4 19 Sudeste 35 Sudeste 0 938.3 0.3 39
2019-02-24 17:00:00 17.4 18 Sudeste 30 Sudeste 0 938 -0.5 25
2019-02-24 16:00:00 17.6 19 Sudeste 30 Sudeste 0 937.9 -1.1 29
2019-02-24 15:00:00 17.9 16 Sudeste 30 Sudeste 0 938 -1.1 25
2019-02-24 14:00:00 18.9 12 Sudeste 28 Sudeste 0 938.5 -0.5 24
2019-02-24 13:00:00 17.1 10 Sudeste 23 Este 0 939 0.1 27
2019-02-24 12:00:00 16.2 13 Sudeste 22 Sudeste 0 939.1 0.8 28
2019-02-24 11:00:00 13 12 Sudeste 23 Sudeste 0 939 1.6 34
2019-02-24 10:00:00 6.3 4 Este 8 Sudeste 0 938.9 2 54
2019-02-24 09:00:00 0.7 3 Este 9 Sur 0 938.3 1.7 75
2019-02-24 08:00:00 -2.2 4 Sur 9 Sur 0 937.4 0.9 86
2019-02-24 07:00:00 -1.4 6 Sudeste 9 Sudeste 0 936.9 0.4 78
2019-02-24 06:00:00 -1.9 6 Sudeste 8 Sudeste 0 936.6 -0.4 81
2019-02-24 05:00:00 -0.1 8 Oeste 9 Oeste 0 936.5 -0.6 70
2019-02-24 04:00:00 -0.1 3 Sudoeste 11 Sudeste 0 936.5 -0.2 67
2019-02-24 03:00:00 0.3 10 Sudeste 13 Sudeste 0 937 0.4 72
2019-02-24 02:00:00 1.9 5 Sur 9 Sur 0 937.1 0.8 53
2019-02-24 01:00:00 4.2 7 Sur 12 Sur 0 936.7 0.8 38
2019-02-24 00:00:00 4.8 8 Sudeste 13 Sudeste 0 936.6 1.2 39
2019-02-23 23:00:00 5.8 9 Sudeste 11 Sudeste 0 936.3 1.1 43
2019-02-23 22:00:00 12.2 7 Oeste 18 Oeste 0 935.9 1.2 26
2019-02-23 21:00:00 12.9 11 Sudoeste 26 Sudoeste 0 935.4 0.7 24
2019-02-23 20:00:00 13.8 11 Oeste 27 Oeste 0 935.2 0.3 25
2019-02-23 19:00:00 15.8 19 Noroeste 33 Noroeste 0 934.7 -0.5 22
2019-02-23 18:00:00 18 15 Oeste 32 Oeste 0 934.7 -1.2 18
2019-02-23 17:00:00 20.2 18 Oeste 29 Noroeste 0 934.9 -1.8 13
2019-02-23 16:00:00 19.8 18 Oeste 28 Oeste 0 935.2 -2.8 14
2019-02-23 15:00:00 19.4 19 Oeste 30 Noroeste 0 935.9 -3 15
2019-02-23 14:00:00 18.3 13 Noroeste 20 Noroeste 0 936.7 -2.5 19
2019-02-23 13:00:00 13.9 8 Norte 14 Norte 0 938 -1.3 32
2019-02-23 12:00:00 10.4 4 Noroeste 8 Norte 0 938.9 -0.2 37
2019-02-23 11:00:00 5.8 3 Norte 8 Nordeste 0 939.2 0.3 52
2019-02-23 10:00:00 1.8 3 Noroeste 6 Norte 0 939.3 0.8 66
2019-02-23 09:00:00 -2.4 3 Sudeste 8 Sudeste 0 939.1 0.8 90
2019-02-23 08:00:00 -3.7 7 Sudeste 8 Sudeste 0 938.9 0.7 87
2019-02-23 07:00:00 -2.6 3 Sur 6 Sudoeste 0 938.5 0.1 81
2019-02-23 06:00:00 -2.4 3 Sur 9 Sudeste 0 938.3 -0.2 81
2019-02-23 05:00:00 -1.9 5 Sur 6 Sudeste 0 938.2 -0.6 84
2019-02-23 04:00:00 -1.2 3 Sudoeste 8 Sur 0 938.4 -0.6 80
2019-02-23 03:00:00 -0.3 5 Sudeste 9 Sudeste 0 938.5 -0.5 75
2019-02-23 02:00:00 0.8 6 Sudeste 8 Sudeste 0 938.8 -0.2 69
2019-02-23 01:00:00 2.2 6 Sur 12 Sudeste 0 939 0.3 62
2019-02-23 00:00:00 2.6 9 Sudeste 12 Sudeste 0 939 0.6 54
2019-02-22 23:00:00 4.1 9 Sudeste 12 Este 0 939 0.8 49
2019-02-22 22:00:00 6.2 10 Sudeste 12 Sudeste 0 938.7 1.2 41
2019-02-22 21:00:00 9.3 5 Sudeste 16 Este 0 938.4 1.3 42
2019-02-22 20:00:00 12.7 8 Sudeste 15 Sur 0 938.2 1.2 26
2019-02-22 19:00:00 17.2 6 Oeste 12 Oeste 0 937.5 0.5 16
2019-02-22 18:00:00 20.9 6 Noroeste 12 Noroeste 0 937.1 -0.4 11
2019-02-22 17:00:00 21.4 4 Norte 14 Norte 0 937 -1 12
2019-02-22 16:00:00 21.1 5 Noroeste 13 Nordeste 0 937 -2.1 14
2019-02-22 15:00:00 19.6 5 Noroeste 13 Noroeste 0 937.5 -2.4 18
2019-02-22 14:00:00 17.1 7 Noroeste 14 Noroeste 0 938 -2.6 22
2019-02-22 13:00:00 14.2 6 Noroeste 10 Noroeste 0 939.1 -1.7 32
2019-02-22 12:00:00 9.6 4 Norte 8 Norte 0 939.9 -0.5 52
2019-02-22 11:00:00 4.8 4 Norte 7 Noroeste 0 940.6 0.6 73
2019-02-22 10:00:00 0.4 2 Sudoeste 5 Sur 0 940.8 0.8 97
2019-02-22 09:00:00 -2.6 4 Sudeste 9 Sudeste 0 940.4 0.6 97
2019-02-22 08:00:00 -3.3 5 Sur 8 Sur 0 940 0.1 96
2019-02-22 07:00:00 -3.3 7 Sudeste 8 Sudeste 0 940 0.1 94
2019-02-22 06:00:00 -2.6 2 Este 7 Sudeste 0 939.8 -0.3 94
2019-02-22 05:00:00 -2.1 0 Calma 8 Sudeste 0 939.9 -0.2 94
2019-02-22 04:00:00 -1.7 6 Sudeste 9 Sudeste 0 939.9 0.1 93
2019-02-22 03:00:00 -0.8 6 Sudeste 9 Sudeste 0 940.1 0.3 92
2019-02-22 02:00:00 0.3 6 Sur 10 Sudeste 0 940.1 0.3 91
2019-02-22 01:00:00 1.6 9 Sudeste 13 Sur 0 939.8 0.6 91
2019-02-22 00:00:00 3.4 9 Sudeste 14 Sudeste 0 939.8 1.5 93
2019-02-21 23:00:00 4.6 5 Este 13 Sudeste 0 939.8 2.3 87
2019-02-21 22:00:00 6 11 Sudeste 17 Este 0 939.2 2.5 84
2019-02-21 21:00:00 7.6 8 Sudeste 24 Sudeste 0 938.3 2.1 78
2019-02-21 20:00:00 9.1 15 Sudeste 29 Sudeste 0 937.5 1.4 67
2019-02-21 19:00:00 11.1 13 Sudeste 29 Sudeste 0 936.7 1 58
2019-02-21 18:00:00 14 17 Sudeste 28 Sudeste 0 936.2 0.6 46
2019-02-21 17:00:00 16.2 14 Sur 27 Sudeste 0 936.1 0 41
2019-02-21 16:00:00 16.9 17 Sur 26 Sudeste 0 935.7 -0.9 35
2019-02-21 15:00:00 16.9 14 Sudeste 24 Sudeste 0 935.6 -1 34
2019-02-21 14:00:00 15.8 13 Sudeste 27 Sur 0 936.1 -0.5 37
2019-02-21 13:00:00 14.2 13 Sudeste 24 Sudeste 0 936.6 -0.1 44
2019-02-21 12:00:00 10.1 4 Norte 9 Noroeste 0 936.6 0 59
2019-02-21 11:00:00 4.8 3 Nordeste 7 Sudeste 0 936.6 0.8 78
2019-02-21 10:00:00 0.7 3 Sur 5 Sur 0 936.7 1.3 99
2019-02-21 09:00:00 -2.2 0 Calma 7 Sur 0 936.6 1.4 97
2019-02-21 08:00:00 -2.9 4 Sudeste 9 Sudeste 0 935.8 0.7 95
2019-02-21 07:00:00 -2.6 6 Sur 9 Sur 0 935.4 0.3 95
2019-02-21 06:00:00 -2 5 Sudeste 6 Sudeste 0 935.2 0.1 95
2019-02-21 05:00:00 -1 5 Sudeste 12 Este 0 935.1 -0.1 96
2019-02-21 04:00:00 -0.1 4 Sudeste 12 Sudeste 0 935.1 0 94
2019-02-21 03:00:00 1.1 7 Sur 12 Sudeste 0 935.1 0 94
2019-02-21 02:00:00 2.1 9 Sur 12 Sudeste 0 935.2 0.3 93
2019-02-21 01:00:00 3.3 6 Sur 11 Sudoeste 0 935.1 0.6 91
2019-02-21 00:00:00 4.5 7 Sur 12 Sudeste 0 935.1 1.4 92
2019-02-20 23:00:00 6.1 10 Sudeste 21 Sudeste 0 934.9 2 92
2019-02-20 22:00:00 6.9 15 Sudeste 28 Sudeste 0 934.5 2.5 90
2019-02-20 21:00:00 7.3 13 Sur 28 Sur 0 933.7 2.3 86
2019-02-20 20:00:00 8.5 13 Sur 27 Sudeste 0 932.9 1.7 73
2019-02-20 19:00:00 10.7 15 Sudeste 26 Sudeste 0 932 0.8 58
2019-02-20 18:00:00 14.4 14 Sudeste 23 Sur 0 931.4 -0.1 39
2019-02-20 17:00:00 16.4 14 Sudeste 24 Sudeste 0 931.2 -0.7 33
2019-02-20 16:00:00 17.7 8 Sudeste 14 Sur 0 931.2 -1.5 28
2019-02-20 15:00:00 17 6 Sur 13 Sudeste 0 931.5 -1.4 32
2019-02-20 14:00:00 14.4 6 Noroeste 12 Noroeste 0 931.9 -1 44
2019-02-20 13:00:00 11.6 5 Norte 11 Norte 0 932.7 0 58
2019-02-20 12:00:00 7.8 4 Norte 10 Norte 0 932.9 0.8 76
2019-02-20 11:00:00 3.8 4 Norte 9 Nordeste 0 932.9 1.5 96
2019-02-20 10:00:00 0.7 4 Oeste 7 Oeste 0 932.7 1.8 100
2019-02-20 09:00:00 -0.6 2 Sur 6 Oeste 0 932.1 1.5 100
2019-02-20 08:00:00 -1.1 3 Sudoeste 4 Oeste 0 931.4 0.7 98
2019-02-20 07:00:00 0.4 3 Oeste 7 Sudeste 0 930.9 0 98
2019-02-20 06:00:00 -0.8 4 Norte 9 Sur 0 930.6 -0.1 97
2019-02-20 05:00:00 -0.1 3 Sudoeste 6 Sudoeste 0 930.7 0 96
2019-02-20 04:00:00 0.2 4 Sudoeste 9 Sur 0 930.9 0.2 96
2019-02-20 03:00:00 1.2 4 Sur 12 Sudeste 0 930.7 0 96
2019-02-20 02:00:00 1.7 8 Sudeste 12 Sudeste 0 930.7 0.1 96
2019-02-20 01:00:00 1.8 7 Sudeste 8 Sudeste 0 930.7 0.7 90
2019-02-20 00:00:00 3.7 3 Sur 9 Sudeste 0 930.7 1.2 83